world map with CDG marked

CDG - Airport

This information may not be accurate or current and is not valid for navigation or flight planning. No warranty of fitness for any purpose is made or implied.

flag of Īle-de-Franceflag of France

Donate via PayPal

Additional information is available on the NEW Great Circle Mapper

Location
City:  Paris, Īle-de-France, France
Near (Alt.):Roissy-en-France
Name:Charles de Gaulle (Roissy)
ICAO / IATA:LFPG / CDG

Details
Type:Airport (Aerodrome, Airfield)
Use:Public/Civil
Latitude:49°00'35"N (49.009722)
Longitude:2°32'52"E (2.547778)
Elevation:392 ft (119 m)
Runways:4
Longest:13829 × 148 ft (4215 × 45 m)

Time
Timezone:UTC+1 (DST+4)
Local Time:

Weather
METAR:LFPG  241400Z 12007KT 090V180 CAVOK 22/10 Q1019 NOSIG
TAF:LFPG  241100Z 2412/2518 14005KT CAVOK TX22/2415Z TN12/2505Z= TAF LIMF 241100Z 2412/2512 08005KT 9999 SCT050

Related Locations
Nearby:
Farthest:CHT: 12068 mi / 19421 km
Waitangi [Tuuta], CIT, NZ

Find:

   beyond  
but within

Other Information
Maps:
Links:
Sources:

  


 


Great Circle Mapper   Great Circle Mapper
Great Circle Mapper FAQ   Great Circle Mapper FAQ
  Karl's Home Page
KLS²   KLS² Home
   GC on Facebook
Airlines of the World   Airlines of the World
Donate via PayPal


Copyright © 2004-2017, Karl L. Swartz. All rights reserved.
All trademarks mentioned herein belong to their respective owners.

Please see credits for attribution and copyright information.

Karl Swartz <karl@kls2.com>
  Powered by FreeBSD
Valid HTML 4.01!
Labeled with ICRA
hCard Microformat
Geo Microformat